aviador You're here:

KGAF Decoded Metar

in
Report Time2017-04-25 20:15:00
UTC Time2017-04-25 20:23:33
Flight Rules mvfr MVFR
Wind010° at 18 Gusting to 23 kt
W.Decomp.*RWY 35: 16.9 kt HW 6.2 kt RCW
RWY 08: 6.2 kt HW 16.9 kt LCW
W.Rank010° ranks 15
Current wind is above 010° avg. (9.3)
Visibility9999 m
Phenomena:N/A
Clouds:Overcast 023 Hf
Expected CloudBase > 1,600 ft AGL from Temp-Dew spread
Ceiling2,300 ft
Temp01°C
Dew Point-3°C (75% RH)
AAT-7.9°C
QNH1013 hPa
Raw Report
METAR KGAF 252015Z AUTO 01018G23KT 10SM OVC023 01/M03 A2991 RMK AO2=

Extra information for KGAF:More info

Social comments